createdAt,value
2022-12-27T00:00:14.210Z,6.63
2022-12-27T00:02:41.561Z,7.80
2022-12-27T00:05:09.631Z,5.72
2022-12-27T00:07:37.193Z,8.68
2022-12-27T00:10:05.578Z,12.93
2022-12-27T00:12:32.368Z,9.55
2022-12-27T00:14:59.121Z,6.18
2022-12-27T00:17:25.964Z,9.80
2022-12-27T00:19:52.723Z,7.65
2022-12-27T00:22:19.984Z,12.50
2022-12-27T00:24:47.777Z,11.32
2022-12-27T00:27:14.648Z,5.95
2022-12-27T00:29:41.463Z,15.43
2022-12-27T00:32:08.263Z,8.80
2022-12-27T00:34:35.248Z,11.27
2022-12-27T00:37:02.020Z,9.48
2022-12-27T00:39:28.764Z,13.27
2022-12-27T00:41:55.569Z,11.88
2022-12-27T00:44:22.378Z,7.50
2022-12-27T00:46:49.140Z,8.43
2022-12-27T00:49:15.867Z,8.02
2022-12-27T00:51:42.648Z,7.82
2022-12-27T00:54:09.417Z,10.18
2022-12-27T00:56:36.239Z,6.60
2022-12-27T00:59:04.626Z,8.68
2022-12-27T01:01:34.871Z,14.63
2022-12-27T01:04:02.823Z,5.57
2022-12-27T01:06:32.275Z,6.97
2022-12-27T01:09:00.629Z,6.97
2022-12-27T01:11:28.490Z,7.47
2022-12-27T01:14:00.364Z,4.82
2022-12-27T01:16:29.187Z,14.25
2022-12-27T01:18:56.267Z,9.50
2022-12-27T01:21:25.125Z,9.80
2022-12-27T01:23:52.374Z,11.43
2022-12-27T01:26:21.297Z,8.38
2022-12-27T01:28:49.435Z,12.80
2022-12-27T01:31:22.887Z,3.95
2022-12-27T01:33:49.783Z,6.80
2022-12-27T01:36:19.583Z,5.90
2022-12-27T01:38:48.166Z,5.93
2022-12-27T01:41:47.130Z,10.73
2022-12-27T01:44:39.037Z,10.73
2022-12-27T01:47:33.817Z,12.13
2022-12-27T01:50:03.287Z,10.70
2022-12-27T01:52:51.562Z,6.32
2022-12-27T01:55:21.225Z,8.95
2022-12-27T01:57:50.282Z,4.63
2022-12-27T02:00:17.966Z,9.43
2022-12-27T02:02:44.986Z,6.70
2022-12-27T02:05:15.197Z,11.13
2022-12-27T02:08:01.916Z,8.05
2022-12-27T02:10:29.459Z,5.25
2022-12-27T02:12:57.598Z,11.55
2022-12-27T02:15:24.388Z,10.30
2022-12-27T02:17:51.190Z,13.35
2022-12-27T02:20:22.653Z,10.73
2022-12-27T02:23:33.570Z,11.52
2022-12-27T02:26:23.238Z,14.13
2022-12-27T02:29:25.121Z,12.43
2022-12-27T02:32:24.015Z,15.73
2022-12-27T02:35:07.146Z,9.63
2022-12-27T02:37:38.761Z,7.30
2022-12-27T02:40:27.760Z,13.77
2022-12-27T02:43:13.741Z,11.27
2022-12-27T02:46:09.878Z,9.48
2022-12-27T02:48:55.149Z,11.13
2022-12-27T02:52:28.233Z,12.40
2022-12-27T02:56:08.412Z,14.55
2022-12-27T02:58:44.209Z,8.32
2022-12-27T03:01:45.616Z,8.38
2022-12-27T03:04:32.957Z,13.73
2022-12-27T03:07:11.893Z,11.40
2022-12-27T03:10:09.426Z,11.85
2022-12-27T03:13:25.676Z,14.77
2022-12-27T03:16:01.568Z,13.85
2022-12-27T03:18:28.296Z,10.63
2022-12-27T03:21:16.712Z,8.43
2022-12-27T03:24:04.339Z,14.93
2022-12-27T03:26:34.463Z,14.05
2022-12-27T03:29:22.192Z,8.68
2022-12-27T03:32:13.167Z,16.83
2022-12-27T03:34:44.900Z,8.52
2022-12-27T03:37:34.695Z,9.02
2022-12-27T03:40:38.867Z,12.15
2022-12-27T03:43:12.727Z,14.27
2022-12-27T03:46:26.466Z,10.80
2022-12-27T03:49:19.403Z,12.25
2022-12-27T03:54:36.342Z,10.55
2022-12-27T03:57:15.683Z,14.55
2022-12-27T03:59:42.741Z,11.90
2022-12-27T04:02:09.767Z,20.55
2022-12-27T04:04:37.167Z,10.75
2022-12-27T04:07:04.873Z,9.05
2022-12-27T04:09:50.122Z,13.05
2022-12-27T04:12:35.741Z,11.25
2022-12-27T04:15:27.424Z,8.02
2022-12-27T04:18:12.857Z,10.07
2022-12-27T04:20:58.522Z,13.07
2022-12-27T04:23:44.135Z,12.38
2022-12-27T04:26:29.519Z,7.57
2022-12-27T04:29:15.048Z,18.63
2022-12-27T04:32:00.561Z,10.35
2022-12-27T04:34:45.512Z,12.25
2022-12-27T04:37:15.342Z,19.45
2022-12-27T04:40:03.125Z,11.48
2022-12-27T04:42:48.411Z,10.25
2022-12-27T04:45:33.887Z,16.88
2022-12-27T04:48:19.311Z,12.73
2022-12-27T04:51:04.946Z,10.98
2022-12-27T04:53:50.409Z,10.77
2022-12-27T04:56:17.143Z,15.13
2022-12-27T04:59:03.851Z,12.75
2022-12-27T05:01:49.572Z,15.73
2022-12-27T05:04:16.704Z,7.70
2022-12-27T05:06:43.527Z,12.48
2022-12-27T05:09:28.715Z,14.63
2022-12-27T05:12:21.796Z,14.18
2022-12-27T05:14:48.586Z,12.95
2022-12-27T05:17:15.368Z,12.18
2022-12-27T05:19:42.121Z,16.88
2022-12-27T05:22:27.510Z,18.88
2022-12-27T05:25:13.045Z,10.80
2022-12-27T05:27:39.743Z,14.40
2022-12-27T05:30:07.184Z,17.00
2022-12-27T05:32:33.932Z,14.05
2022-12-27T05:35:00.713Z,16.02
2022-12-27T05:37:27.485Z,19.65
2022-12-27T05:39:54.215Z,17.10
2022-12-27T05:42:20.948Z,13.90
2022-12-27T05:44:47.688Z,11.32
2022-12-27T05:47:14.426Z,14.07
2022-12-27T05:49:41.233Z,16.20
2022-12-27T05:52:08.001Z,14.60
2022-12-27T05:54:34.797Z,12.13
2022-12-27T05:57:01.549Z,18.98
2022-12-27T05:59:30.467Z,14.48
2022-12-27T06:01:57.455Z,11.68
2022-12-27T06:04:24.356Z,11.95
2022-12-27T06:06:51.089Z,10.20
2022-12-27T06:09:17.849Z,9.30
2022-12-27T06:11:44.646Z,18.80
2022-12-27T06:14:11.478Z,12.93
2022-12-27T06:16:38.209Z,12.63
2022-12-27T06:19:04.974Z,18.15
2022-12-27T06:21:31.763Z,14.00
2022-12-27T06:23:58.553Z,10.25
2022-12-27T06:26:28.409Z,14.02
2022-12-27T06:28:57.136Z,17.15
2022-12-27T06:31:25.195Z,15.18
2022-12-27T06:33:52.340Z,10.63
2022-12-27T06:36:22.069Z,11.57
2022-12-27T06:38:49.413Z,16.38
2022-12-27T06:41:18.241Z,17.23
2022-12-27T06:43:45.791Z,14.82
2022-12-27T06:46:17.832Z,16.50
2022-12-27T06:51:13.292Z,13.23
2022-12-27T06:53:40.107Z,10.35
2022-12-27T06:56:16.655Z,11.73
2022-12-27T06:58:43.520Z,11.70
2022-12-27T07:01:16.224Z,13.73
2022-12-27T07:03:43.886Z,8.00
2022-12-27T07:06:11.773Z,15.65
2022-12-27T07:08:38.717Z,8.15
2022-12-27T07:11:08.496Z,13.50
2022-12-27T07:13:40.927Z,10.32
2022-12-27T07:16:13.832Z,8.82
2022-12-27T07:18:41.136Z,11.38
2022-12-27T07:21:13.778Z,8.20
2022-12-27T07:23:41.071Z,13.68
2022-12-27T07:26:13.638Z,13.57
2022-12-27T07:31:19.937Z,7.60
2022-12-27T07:33:46.891Z,10.68
2022-12-27T07:36:22.194Z,8.98
2022-12-27T07:38:49.177Z,11.32
2022-12-27T07:41:16.973Z,8.85
2022-12-27T07:43:44.375Z,10.30
2022-12-27T07:46:17.195Z,11.82
2022-12-27T07:48:44.384Z,9.77
2022-12-27T07:51:18.060Z,8.02
2022-12-27T07:53:47.420Z,10.10
2022-12-27T07:56:23.435Z,13.95
2022-12-27T07:58:53.405Z,13.80
2022-12-27T08:01:21.919Z,7.43
2022-12-27T08:03:49.299Z,9.38
2022-12-27T08:06:35.211Z,13.63
2022-12-27T08:09:06.815Z,10.23
2022-12-27T08:11:33.655Z,10.33
2022-12-27T08:14:00.456Z,11.30
2022-12-27T08:16:27.545Z,14.98
2022-12-27T08:18:54.440Z,7.72
2022-12-27T08:21:21.334Z,14.10
2022-12-27T08:23:48.395Z,8.95
2022-12-27T08:26:15.890Z,12.60
2022-12-27T08:28:42.912Z,10.52
2022-12-27T08:31:12.485Z,11.02
2022-12-27T08:33:41.636Z,10.43
2022-12-27T08:36:29.063Z,8.93
2022-12-27T08:38:57.375Z,9.38
2022-12-27T08:41:24.336Z,9.73
2022-12-27T08:43:51.073Z,11.50
2022-12-27T08:46:19.529Z,12.13
2022-12-27T08:48:50.545Z,8.13
2022-12-27T08:51:27.268Z,12.07
2022-12-27T08:53:58.339Z,14.18
2022-12-27T08:56:25.187Z,10.48
2022-12-27T08:58:52.080Z,12.98
2022-12-27T09:01:19.462Z,11.50
2022-12-27T09:03:46.387Z,17.15
2022-12-27T09:06:18.270Z,10.73
2022-12-27T09:08:46.476Z,10.05
2022-12-27T09:11:28.526Z,8.93
2022-12-27T09:14:02.265Z,12.85
2022-12-27T09:16:30.220Z,12.25
2022-12-27T09:18:59.187Z,10.00
2022-12-27T09:21:29.261Z,10.85
2022-12-27T09:23:56.358Z,8.70
2022-12-27T09:26:26.536Z,11.38
2022-12-27T09:28:56.270Z,16.48
2022-12-27T09:31:24.054Z,14.20
2022-12-27T09:33:51.471Z,15.30
2022-12-27T09:36:23.958Z,9.23
2022-12-27T09:45:03.816Z,9.95
2022-12-27T09:47:39.043Z,13.40
2022-12-27T09:50:13.700Z,12.43
2022-12-27T09:53:00.713Z,10.48
2022-12-27T09:56:02.793Z,12.15
2022-12-27T09:58:41.818Z,13.50
2022-12-27T10:01:20.127Z,19.92
2022-12-27T10:03:47.129Z,11.82
2022-12-27T10:06:22.637Z,10.40
2022-12-27T10:09:19.937Z,10.77
2022-12-27T10:11:56.632Z,10.15
2022-12-27T10:15:11.214Z,8.35
2022-12-27T10:18:13.885Z,11.75
2022-12-27T10:20:59.000Z,9.50
2022-12-27T10:23:32.660Z,8.88
2022-12-27T10:26:04.208Z,12.15
2022-12-27T10:28:44.624Z,12.10
2022-12-27T10:31:17.674Z,12.52
2022-12-27T10:33:45.920Z,11.88
2022-12-27T10:36:16.392Z,10.25
2022-12-27T10:38:43.132Z,11.88
2022-12-27T10:41:43.471Z,9.98
2022-12-27T10:44:13.313Z,9.88
2022-12-27T10:46:44.114Z,10.68
2022-12-27T10:49:32.330Z,8.75
2022-12-27T10:52:11.141Z,11.45
2022-12-27T10:54:53.709Z,9.10
2022-12-27T10:57:33.419Z,15.18
2022-12-27T11:00:23.262Z,11.10
2022-12-27T11:02:55.575Z,13.85
2022-12-27T11:05:31.157Z,11.07
2022-12-27T11:07:58.490Z,11.10
2022-12-27T11:10:33.291Z,12.32
2022-12-27T11:13:06.654Z,12.32
2022-12-27T11:15:44.611Z,9.73
2022-12-27T11:18:19.762Z,8.52
2022-12-27T11:20:50.672Z,16.55
2022-12-27T11:23:19.891Z,21.15
2022-12-27T11:26:05.140Z,9.68
2022-12-27T11:28:33.987Z,13.68
2022-12-27T11:31:11.768Z,13.40
2022-12-27T11:33:51.431Z,12.68
2022-12-27T11:36:28.632Z,14.52
2022-12-27T11:38:55.829Z,8.95
2022-12-27T11:41:34.699Z,10.73
2022-12-27T11:44:13.474Z,10.60
2022-12-27T11:46:58.546Z,6.78
2022-12-27T11:49:34.106Z,6.55
2022-12-27T11:52:40.967Z,9.57
2022-12-27T11:55:28.753Z,8.10
2022-12-27T11:58:23.803Z,9.77
2022-12-27T12:01:33.507Z,10.75
2022-12-27T12:04:26.006Z,9.93
2022-12-27T12:07:17.617Z,7.30
2022-12-27T12:10:18.579Z,10.25
2022-12-27T12:12:57.543Z,7.90
2022-12-27T12:15:45.874Z,6.45
2022-12-27T12:18:21.444Z,10.95
2022-12-27T12:20:54.292Z,7.35
2022-12-27T12:23:45.327Z,9.27
2022-12-27T12:26:22.086Z,6.63
2022-12-27T12:29:14.115Z,7.47
2022-12-27T12:32:08.910Z,9.87
2022-12-27T12:34:53.786Z,10.98
2022-12-27T12:37:32.668Z,6.85
2022-12-27T12:40:32.544Z,4.75
2022-12-27T12:43:17.371Z,8.18
2022-12-27T12:46:00.754Z,8.45
2022-12-27T12:49:07.893Z,7.35
2022-12-27T12:52:32.059Z,9.82
2022-12-27T12:55:39.757Z,6.78
2022-12-27T12:58:17.828Z,7.72
2022-12-27T13:00:50.211Z,10.15
2022-12-27T13:03:40.348Z,9.38
2022-12-27T13:06:40.986Z,10.23
2022-12-27T13:09:13.258Z,12.27
2022-12-27T13:11:45.053Z,12.57
2022-12-27T13:14:26.810Z,9.48
2022-12-27T13:17:05.103Z,10.50
2022-12-27T13:19:46.928Z,15.93
2022-12-27T13:22:37.949Z,14.90
2022-12-27T13:25:26.035Z,18.73
2022-12-27T13:27:55.808Z,12.48
2022-12-27T13:30:38.595Z,11.57
2022-12-27T13:33:25.617Z,18.00
2022-12-27T13:35:58.182Z,12.13
2022-12-27T13:41:42.514Z,9.90
2022-12-27T13:44:42.265Z,9.57
2022-12-27T13:47:12.516Z,8.50
2022-12-27T13:50:14.194Z,10.75
2022-12-27T13:52:59.832Z,11.18
2022-12-27T13:55:42.106Z,11.13
2022-12-27T13:59:02.555Z,10.80
2022-12-27T14:01:36.775Z,11.60
2022-12-27T14:04:13.398Z,13.77
2022-12-27T14:07:12.202Z,10.52
2022-12-27T14:09:59.637Z,11.50
2022-12-27T14:12:44.482Z,13.75
2022-12-27T14:15:19.193Z,9.20
2022-12-27T14:17:53.670Z,9.93
2022-12-27T14:20:29.295Z,8.30
2022-12-27T14:23:14.270Z,11.25
2022-12-27T14:26:13.153Z,6.22
2022-12-27T14:29:07.582Z,11.75
2022-12-27T14:32:06.612Z,10.07
2022-12-27T14:34:59.878Z,12.75
2022-12-27T14:37:48.615Z,9.35
2022-12-27T14:40:36.852Z,7.35
2022-12-27T14:43:30.744Z,9.48
2022-12-27T14:46:15.605Z,12.43
2022-12-27T14:49:10.455Z,15.07
2022-12-27T14:52:01.060Z,15.50
2022-12-27T14:54:55.595Z,11.53
2022-12-27T14:57:40.431Z,8.60
2022-12-27T15:01:03.500Z,9.68
2022-12-27T15:04:04.323Z,6.78
2022-12-27T15:06:33.781Z,14.45
2022-12-27T15:09:48.594Z,6.47
2022-12-27T15:12:25.293Z,14.40
2022-12-27T15:14:58.779Z,12.40
2022-12-27T15:18:03.235Z,9.15
2022-12-27T15:20:47.344Z,10.50
2022-12-27T15:23:19.981Z,12.38
2022-12-27T15:26:09.680Z,15.98
2022-12-27T15:29:00.937Z,7.60
2022-12-27T15:31:36.533Z,12.73
2022-12-27T15:34:13.316Z,8.73
2022-12-27T15:36:42.408Z,14.27
2022-12-27T15:39:34.199Z,8.75
2022-12-27T15:42:12.555Z,16.85
2022-12-27T15:45:04.210Z,8.65
2022-12-27T15:47:42.961Z,9.40
2022-12-27T15:50:28.886Z,9.60
2022-12-27T15:53:04.448Z,9.95
2022-12-27T15:55:43.339Z,9.23
2022-12-27T15:58:36.595Z,7.10
2022-12-27T16:01:26.263Z,12.90
2022-12-27T16:03:58.618Z,11.10
2022-12-27T16:06:34.581Z,8.50
2022-12-27T16:09:23.375Z,7.95
2022-12-27T16:12:09.726Z,14.93
2022-12-27T16:14:41.502Z,11.32
2022-12-27T16:17:39.078Z,14.18
2022-12-27T16:20:18.740Z,13.45
2022-12-27T16:22:56.559Z,9.05
2022-12-27T16:25:31.721Z,6.82
2022-12-27T16:28:01.722Z,10.50
2022-12-27T16:30:50.435Z,11.65
2022-12-27T16:33:26.150Z,8.02
2022-12-27T16:36:11.612Z,9.85
2022-12-27T16:38:56.697Z,9.40
2022-12-27T16:41:36.769Z,8.82
2022-12-27T16:44:33.148Z,9.57
2022-12-27T16:47:06.217Z,8.85
2022-12-27T16:50:18.211Z,10.93
2022-12-27T16:53:26.743Z,8.13
2022-12-27T16:56:22.707Z,7.88
2022-12-27T16:58:49.987Z,8.10
2022-12-27T17:01:25.971Z,11.48
2022-12-27T17:03:57.573Z,8.00
2022-12-27T17:06:39.525Z,12.02
2022-12-27T17:09:09.377Z,12.95
2022-12-27T17:11:47.570Z,11.02
2022-12-27T17:14:27.957Z,11.18
2022-12-27T17:17:02.856Z,12.63
2022-12-27T17:19:45.451Z,14.45
2022-12-27T17:22:16.157Z,13.85
2022-12-27T17:24:58.081Z,15.05
2022-12-27T17:27:56.626Z,10.67
2022-12-27T17:30:36.622Z,12.20
2022-12-27T17:33:28.770Z,14.60
2022-12-27T17:35:58.391Z,21.05
2022-12-27T17:38:46.968Z,19.77
2022-12-27T17:41:47.573Z,20.88
2022-12-27T17:44:38.828Z,25.50
2022-12-27T17:47:29.636Z,30.50
2022-12-27T17:50:12.171Z,25.90
2022-12-27T17:53:14.600Z,28.75
2022-12-27T17:56:07.626Z,19.27
2022-12-27T17:58:35.119Z,18.95
2022-12-27T18:01:02.789Z,19.27
2022-12-27T18:03:45.820Z,17.00
2022-12-27T18:06:17.968Z,16.55
2022-12-27T18:08:49.246Z,15.80
2022-12-27T18:11:16.626Z,18.73
2022-12-27T18:13:52.797Z,14.25
2022-12-27T18:16:37.686Z,15.95
2022-12-27T18:19:06.256Z,15.88
2022-12-27T18:21:33.041Z,14.07
2022-12-27T18:23:59.827Z,18.80
2022-12-27T18:26:43.822Z,12.32
2022-12-27T18:29:11.683Z,21.80
2022-12-27T18:31:49.057Z,13.57
2022-12-27T18:34:48.760Z,16.30
2022-12-27T18:37:21.614Z,17.30
2022-12-27T18:39:51.375Z,19.52
2022-12-27T18:42:29.927Z,15.18
2022-12-27T18:45:14.896Z,14.68
2022-12-27T18:47:48.363Z,16.23
2022-12-27T18:50:19.302Z,19.30
2022-12-27T18:52:52.915Z,15.73
2022-12-27T18:55:28.848Z,17.13
2022-12-27T18:58:25.663Z,18.40
2022-12-27T19:01:39.920Z,16.33
2022-12-27T19:04:18.692Z,13.15
2022-12-27T19:06:48.470Z,15.80
2022-12-27T19:09:20.783Z,24.75
2022-12-27T19:11:57.623Z,13.77
2022-12-27T19:14:26.370Z,17.45
2022-12-27T19:16:56.505Z,17.35
2022-12-27T19:19:28.081Z,18.70
2022-12-27T19:21:55.313Z,13.00
2022-12-27T19:24:27.374Z,14.52
2022-12-27T19:26:55.728Z,17.75
2022-12-27T19:29:28.339Z,19.75
2022-12-27T19:31:57.139Z,16.95
2022-12-27T19:34:45.638Z,16.92
2022-12-27T19:37:12.913Z,18.33
2022-12-27T19:39:41.454Z,12.85
2022-12-27T19:42:21.390Z,18.05
2022-12-27T19:44:48.131Z,13.95
2022-12-27T19:47:15.480Z,11.25
2022-12-27T19:49:44.181Z,12.65
2022-12-27T19:52:19.379Z,14.45
2022-12-27T19:54:47.603Z,18.05
2022-12-27T19:57:14.837Z,12.88
2022-12-27T19:59:42.175Z,12.55
2022-12-27T20:02:09.898Z,15.38
2022-12-27T20:04:37.007Z,19.45
2022-12-27T20:07:03.837Z,16.90
2022-12-27T20:09:30.649Z,14.95
2022-12-27T20:11:57.524Z,18.75
2022-12-27T20:14:24.299Z,16.10
2022-12-27T20:16:51.064Z,18.67
2022-12-27T20:19:19.969Z,17.98
2022-12-27T20:21:47.035Z,16.77
2022-12-27T20:24:14.216Z,16.23
2022-12-27T20:26:42.255Z,16.00
2022-12-27T20:29:10.104Z,21.75
2022-12-27T20:31:44.295Z,14.63
2022-12-27T20:34:12.785Z,15.93
2022-12-27T20:36:39.798Z,18.63
2022-12-27T20:39:09.552Z,14.55
2022-12-27T20:41:36.436Z,18.75
2022-12-27T20:44:03.390Z,13.63
2022-12-27T20:46:30.186Z,17.15
2022-12-27T20:48:57.437Z,21.00
2022-12-27T20:51:27.558Z,14.20
2022-12-27T20:53:56.580Z,13.30
2022-12-27T20:56:23.758Z,21.83
2022-12-27T20:58:50.509Z,17.98
2022-12-27T21:01:24.211Z,17.35
2022-12-27T21:03:51.232Z,14.73
2022-12-27T21:06:23.461Z,14.10
2022-12-27T21:08:56.240Z,14.98
2022-12-27T21:11:31.646Z,14.00
2022-12-27T21:13:59.853Z,8.35
2022-12-27T21:16:29.112Z,10.27
2022-12-27T21:19:04.880Z,11.20
2022-12-27T21:21:34.449Z,8.18
2022-12-27T21:24:01.620Z,8.40
2022-12-27T21:26:33.860Z,8.98
2022-12-27T21:29:01.514Z,5.20
2022-12-27T21:31:28.960Z,7.25
2022-12-27T21:33:55.955Z,6.20
2022-12-27T21:36:24.956Z,5.70
2022-12-27T21:38:52.655Z,5.30
2022-12-27T21:41:24.726Z,5.97
2022-12-27T21:43:52.207Z,8.20
2022-12-27T21:46:25.391Z,4.82
2022-12-27T21:49:00.276Z,8.20
2022-12-27T21:51:27.934Z,6.68
2022-12-27T21:53:57.136Z,7.30
2022-12-27T21:56:24.406Z,3.22
2022-12-27T21:58:51.317Z,4.03
2022-12-27T22:01:20.450Z,6.95
2022-12-27T22:03:49.653Z,3.80
2022-12-27T22:06:19.248Z,7.63
2022-12-27T22:08:48.228Z,6.80
2022-12-27T22:11:16.035Z,4.63
2022-12-27T22:13:43.240Z,4.30
2022-12-27T22:16:19.266Z,3.97
2022-12-27T22:18:46.264Z,6.15
2022-12-27T22:21:18.503Z,9.63
2022-12-27T22:23:48.030Z,8.55
2022-12-27T22:26:17.964Z,3.80
2022-12-27T22:28:45.538Z,8.18
2022-12-27T22:31:15.196Z,3.30
2022-12-27T22:33:42.490Z,4.20
2022-12-27T22:36:13.100Z,5.00
2022-12-27T22:38:40.730Z,5.70
2022-12-27T22:41:22.154Z,11.70
2022-12-27T22:43:54.511Z,6.60
2022-12-27T22:46:21.436Z,11.80
2022-12-27T22:48:54.687Z,7.68
2022-12-27T22:51:36.299Z,4.45
2022-12-27T22:54:04.791Z,5.13
2022-12-27T22:56:34.377Z,3.88
2022-12-27T22:59:01.603Z,2.45
2022-12-27T23:01:31.642Z,3.70
2022-12-27T23:04:00.251Z,6.88
2022-12-27T23:06:28.413Z,7.50
2022-12-27T23:08:55.336Z,4.28
2022-12-27T23:11:24.330Z,3.75
2022-12-27T23:14:12.635Z,7.40
2022-12-27T23:16:42.262Z,6.88
2022-12-27T23:19:09.545Z,3.88
2022-12-27T23:21:36.661Z,5.07
2022-12-27T23:24:03.863Z,5.22
2022-12-27T23:26:30.726Z,10.20
2022-12-27T23:28:57.961Z,6.03
2022-12-27T23:31:25.851Z,4.05
2022-12-27T23:33:53.250Z,8.30
2022-12-27T23:36:20.727Z,5.32
2022-12-27T23:38:47.896Z,8.30
2022-12-27T23:41:20.438Z,8.48
2022-12-27T23:46:30.084Z,4.38
2022-12-27T23:48:58.412Z,8.63
2022-12-27T23:51:25.784Z,5.68
2022-12-27T23:53:52.639Z,6.32
2022-12-27T23:56:25.668Z,8.02
2022-12-27T23:58:54.733Z,4.25
